Time;durP1;ratioP1;P1;durP2;ratioP2;P2;SDS_P1;SDS_P2;PMS_P1;PMS_P2;Temp;Humidity;BMP_temperature;BMP_pressure;BME280_temperature;BME280_humidity;BME280_pressure;Samples;Min_cycle;Max_cycle;Signal;HPM_P1;HPM_P2
2021/12/21 00:00:38;;;;;;;61.67;37.60;;;25.20;99.90;;;;;;5067710;28;20060;-66
2021/12/21 00:03:05;;;;;;;60.10;38.88;;;25.30;99.90;;;;;;5073014;28;20401;-68
2021/12/21 00:05:32;;;;;;;57.25;37.88;;;25.30;99.90;;;;;;5057472;28;20057;-65
2021/12/21 00:08:01;;;;;;;53.20;35.08;;;25.40;99.90;;;;;;5040107;28;20040;-65
2021/12/21 00:10:31;;;;;;;51.50;35.75;;;25.40;99.90;;;;;;5075890;28;20051;-66
2021/12/21 00:21:03;;;;;;;118.03;47.92;;;25.20;99.90;;;;;;5062804;28;20136;-67
2021/12/21 00:23:32;;;;;;;149.32;54.45;;;25.20;99.90;;;;;;5071615;28;20041;-66
2021/12/21 00:26:02;;;;;;;150.35;53.92;;;25.30;99.90;;;;;;5054739;28;20062;-66
2021/12/21 00:28:37;;;;;;;150.05;54.92;;;25.30;99.90;;;;;;5069745;28;20115;-65
2021/12/21 00:31:04;;;;;;;169.50;58.08;;;25.40;99.90;;;;;;5065287;28;20060;-64
2021/12/21 00:33:31;;;;;;;163.13;56.35;;;25.40;99.90;;;;;;5058374;28;20041;-65
2021/12/21 00:35:59;;;;;;;159.23;55.83;;;25.30;99.90;;;;;;5053723;28;20060;-66
2021/12/21 00:38:26;;;;;;;156.05;51.33;;;25.40;99.90;;;;;;5059337;28;20055;-65
2021/12/21 00:40:53;;;;;;;144.38;47.65;;;25.40;99.90;;;;;;5068763;28;20056;-64
2021/12/21 00:43:20;;;;;;;126.75;44.40;;;25.40;99.90;;;;;;5064150;28;20386;-64
2021/12/21 00:45:46;;;;;;;77.72;30.45;;;25.40;99.90;;;;;;5058771;28;20075;-66
2021/12/21 00:48:15;;;;;;;46.20;23.33;;;25.40;99.90;;;;;;5057936;28;20063;-66
2021/12/21 00:50:42;;;;;;;43.15;20.13;;;25.40;99.90;;;;;;5059615;28;20048;-67
2021/12/21 00:53:09;;;;;;;33.15;18.70;;;25.40;99.90;;;;;;5058925;28;20548;-66
2021/12/21 00:55:35;;;;;;;26.77;17.73;;;25.40;99.90;;;;;;5057935;28;20035;-66
2021/12/21 00:58:02;;;;;;;30.55;18.20;;;25.50;99.90;;;;;;5074668;28;20044;-65
2021/12/21 01:00:29;;;;;;;25.73;17.15;;;25.50;99.90;;;;;;5064496;28;20178;-64
2021/12/21 01:02:58;;;;;;;26.33;17.33;;;25.50;99.90;;;;;;5058663;28;20189;-65
2021/12/21 01:05:40;;;;;;;30.58;17.08;;;25.60;99.90;;;;;;5059459;28;20408;-65
2021/12/21 01:08:10;;;;;;;27.10;16.20;;;25.60;99.90;;;;;;5065467;28;20040;-66
2021/12/21 01:10:52;;;;;;;25.38;16.80;;;25.70;99.90;;;;;;5058870;28;20059;-66
2021/12/21 01:13:35;;;;;;;28.38;17.08;;;25.70;99.90;;;;;;5067537;28;20053;-65
2021/12/21 01:18:51;;;;;;;61.65;30.60;;;25.80;99.90;;;;;;5054708;28;20041;-67
2021/12/21 01:21:22;;;;;;;55.80;31.30;;;25.80;99.90;;;;;;5060291;28;20036;-66
2021/12/21 01:28:57;;;;;;;160.93;57.58;;;26.00;99.90;;;;;;5063182;28;20052;-66
2021/12/21 01:31:33;;;;;;;250.18;76.45;;;25.90;99.90;;;;;;5057854;28;20054;-66
2021/12/21 01:34:21;;;;;;;239.70;76.97;;;25.90;99.90;;;;;;5062249;28;20036;-66
2021/12/21 01:37:01;;;;;;;239.57;80.43;;;26.00;99.90;;;;;;5066428;28;20382;-65
2021/12/21 01:42:13;;;;;;;288.73;90.63;;;26.10;99.90;;;;;;5061358;28;20123;-63
2021/12/21 01:49:42;;;;;;;312.08;116.47;;;26.10;99.90;;;;;;5058872;28;20036;-63
2021/12/21 01:52:13;;;;;;;287.90;91.15;;;26.10;99.90;;;;;;5058532;28;20040;-66
2021/12/21 01:54:41;;;;;;;285.98;87.38;;;26.20;99.90;;;;;;5071000;28;20132;-66
2021/12/21 01:57:08;;;;;;;242.35;83.43;;;26.30;99.90;;;;;;5050868;28;20028;-65
2021/12/21 01:59:37;;;;;;;258.60;87.25;;;26.30;99.90;;;;;;5067712;28;20446;-65
2021/12/21 02:02:05;;;;;;;245.20;85.35;;;26.30;99.90;;;;;;5058831;28;20500;-64
2021/12/21 02:04:32;;;;;;;267.52;87.10;;;26.20;99.90;;;;;;5058599;28;20532;-63
2021/12/21 02:06:59;;;;;;;256.73;88.70;;;26.20;99.90;;;;;;5052242;28;20047;-64
2021/12/21 02:09:33;;;;;;;274.70;91.53;;;26.20;99.90;;;;;;5052087;28;20044;-65
2021/12/21 02:12:00;;;;;;;229.32;80.53;;;26.20;99.90;;;;;;5055584;28;20044;-65
2021/12/21 02:14:26;;;;;;;237.82;81.68;;;26.10;99.90;;;;;;5061958;28;20040;-65
2021/12/21 02:17:12;;;;;;;249.05;90.53;;;26.20;99.90;;;;;;5049199;28;20174;-66
2021/12/21 02:19:55;;;;;;;256.77;98.55;;;26.30;99.90;;;;;;5053804;28;20131;-66
2021/12/21 02:22:24;;;;;;;256.52;109.80;;;26.30;99.90;;;;;;5061176;28;20036;-66
2021/12/21 02:25:03;;;;;;;275.38;114.53;;;26.20;99.90;;;;;;5046903;28;20504;-67
2021/12/21 02:27:42;;;;;;;299.85;132.50;;;26.20;99.90;;;;;;5058294;28;20056;-63
2021/12/21 02:30:15;;;;;;;276.30;126.20;;;26.40;99.90;;;;;;5052189;28;20040;-66
2021/12/21 02:32:41;;;;;;;286.05;112.07;;;26.50;99.90;;;;;;5067729;28;20040;-66
2021/12/21 02:35:09;;;;;;;294.42;111.82;;;26.50;99.90;;;;;;5044672;28;20551;-68
2021/12/21 02:37:35;;;;;;;252.63;103.35;;;26.50;99.90;;;;;;5040460;28;20143;-66
2021/12/21 02:40:03;;;;;;;221.00;93.00;;;26.60;99.90;;;;;;5034231;28;20497;-66
2021/12/21 02:42:29;;;;;;;311.08;169.73;;;26.50;99.90;;;;;;5068259;28;20044;-65
2021/12/21 02:44:56;;;;;;;195.75;93.05;;;26.60;99.90;;;;;;5048416;28;20062;-64
2021/12/21 02:47:23;;;;;;;210.73;97.10;;;26.60;99.90;;;;;;5043114;28;20037;-64
2021/12/21 02:49:50;;;;;;;199.60;97.25;;;26.60;99.90;;;;;;5045772;28;20033;-66
2021/12/21 02:52:16;;;;;;;182.75;94.22;;;26.70;99.90;;;;;;5052651;28;20071;-63
2021/12/21 02:54:43;;;;;;;167.85;92.72;;;26.70;99.90;;;;;;5051099;28;20048;-65
2021/12/21 02:57:10;;;;;;;173.98;98.00;;;26.60;99.90;;;;;;5045901;28;20044;-62
2021/12/21 02:59:36;;;;;;;157.48;92.18;;;26.60;99.90;;;;;;5045501;28;20040;-63
2021/12/21 03:02:03;;;;;;;151.25;93.80;;;26.60;99.90;;;;;;5045915;28;20032;-63
2021/12/21 03:04:30;;;;;;;170.40;92.30;;;26.60;99.90;;;;;;5059949;28;20040;-65
2021/12/21 03:14:39;;;;;;;133.13;83.93;;;26.80;99.90;;;;;;5056664;28;20044;-66
2021/12/21 03:17:07;;;;;;;141.75;85.10;;;26.80;99.90;;;;;;5044520;28;20033;-64
2021/12/21 03:19:34;;;;;;;126.78;80.30;;;26.90;99.90;;;;;;5045015;28;20033;-65
2021/12/21 03:22:01;;;;;;;122.35;80.15;;;27.00;99.90;;;;;;5062385;28;20032;-65
2021/12/21 03:24:28;;;;;;;140.00;86.30;;;27.00;99.90;;;;;;5061096;28;20028;-66
2021/12/21 03:26:55;;;;;;;156.82;85.75;;;27.00;99.90;;;;;;5062124;28;20029;-66
2021/12/21 03:29:22;;;;;;;152.60;82.28;;;27.00;99.90;;;;;;5059739;28;20028;-65
2021/12/21 03:31:49;;;;;;;148.80;80.70;;;27.00;99.90;;;;;;5065921;28;20036;-66
2021/12/21 03:34:16;;;;;;;158.55;85.70;;;27.00;99.90;;;;;;5063963;28;20025;-66
2021/12/21 03:36:42;;;;;;;169.70;93.13;;;27.10;99.90;;;;;;5065679;28;20029;-66
2021/12/21 03:39:16;;;;;;;154.57;81.00;;;27.10;99.90;;;;;;5068081;28;20031;-69
2021/12/21 03:41:47;;;;;;;161.27;84.22;;;27.10;99.90;;;;;;5073724;28;20028;-65
2021/12/21 03:44:15;;;;;;;149.10;79.55;;;27.20;99.90;;;;;;5073503;28;20078;-64
2021/12/21 03:46:46;;;;;;;147.95;75.72;;;27.30;99.90;;;;;;5075483;28;20471;-66
2021/12/21 03:52:15;;;;;;;187.63;123.80;;;27.30;99.90;;;;;;5076094;28;20525;-64
2021/12/21 03:54:45;;;;;;;131.75;78.03;;;27.40;99.90;;;;;;5076169;28;20028;-66
2021/12/21 03:57:13;;;;;;;132.45;74.88;;;27.30;99.90;;;;;;5076204;28;20029;-64
2021/12/21 03:59:41;;;;;;;92.22;62.47;;;27.40;99.90;;;;;;5076334;28;20098;-65
2021/12/21 04:02:13;;;;;;;103.43;65.65;;;27.40;99.90;;;;;;5076328;28;20491;-66
2021/12/21 04:04:40;;;;;;;99.10;67.22;;;27.40;99.90;;;;;;5076817;28;20043;-68
2021/12/21 04:07:07;;;;;;;63.95;48.63;;;27.30;99.90;;;;;;5076780;28;20021;-65
2021/12/21 04:09:33;;;;;;;58.83;46.58;;;27.40;99.90;;;;;;5075429;28;20553;-64
2021/12/21 04:12:03;;;;;;;54.70;43.15;;;27.50;99.90;;;;;;5070220;28;20032;-66
2021/12/21 04:14:32;;;;;;;50.10;41.55;;;27.50;99.90;;;;;;5065374;28;20025;-65
2021/12/21 04:16:59;;;;;;;58.40;43.60;;;27.60;99.90;;;;;;5065653;28;20035;-65
2021/12/21 04:19:26;;;;;;;49.97;38.78;;;27.60;99.90;;;;;;5066785;28;20102;-65
2021/12/21 04:21:53;;;;;;;54.03;36.47;;;27.60;99.90;;;;;;5065576;28;20040;-65
2021/12/21 04:24:19;;;;;;;38.25;30.48;;;27.60;99.90;;;;;;5065790;28;20027;-67
2021/12/21 04:26:47;;;;;;;43.53;32.20;;;27.60;99.90;;;;;;5067491;28;20073;-65
2021/12/21 04:29:15;;;;;;;35.88;27.27;;;27.60;99.90;;;;;;5065711;28;20070;-64
2021/12/21 04:31:41;;;;;;;36.72;25.65;;;27.50;99.90;;;;;;5064902;28;20474;-65
2021/12/21 04:34:08;;;;;;;41.75;24.10;;;27.50;99.90;;;;;;5066733;28;20036;-65
2021/12/21 04:36:35;;;;;;;37.55;24.63;;;27.50;99.90;;;;;;5072001;28;20032;-64
2021/12/21 04:39:04;;;;;;;47.13;23.38;;;27.50;99.90;;;;;;5070215;28;20028;-63
2021/12/21 04:41:31;;;;;;;60.35;38.60;;;27.50;99.90;;;;;;5062670;28;20021;-65
2021/12/21 04:43:59;;;;;;;63.55;43.10;;;27.50;99.90;;;;;;5066295;28;20036;-65
2021/12/21 04:46:27;;;;;;;69.97;45.10;;;27.50;99.90;;;;;;5068181;28;20028;-66
2021/12/21 04:48:55;;;;;;;48.60;34.67;;;27.50;99.90;;;;;;5071831;28;20393;-66
2021/12/21 04:51:22;;;;;;;44.92;28.35;;;27.60;99.90;;;;;;5065625;28;20426;-65
2021/12/21 04:53:48;;;;;;;34.55;24.42;;;27.60;99.90;;;;;;5065725;28;20033;-65
2021/12/21 04:56:15;;;;;;;33.08;23.15;;;27.70;99.90;;;;;;5063041;28;20508;-64
2021/12/21 04:58:42;;;;;;;66.43;44.50;;;27.70;99.90;;;;;;5065731;28;20028;-63
2021/12/21 05:01:09;;;;;;;64.45;46.53;;;27.70;99.90;;;;;;5061005;28;20029;-65
2021/12/21 05:03:35;;;;;;;64.03;42.75;;;27.70;99.90;;;;;;5064155;28;20481;-66
2021/12/21 05:06:02;;;;;;;58.22;37.33;;;27.70;99.90;;;;;;5073067;28;20016;-66
2021/12/21 05:08:37;;;;;;;45.00;30.15;;;27.60;99.90;;;;;;5075484;28;20469;-66
2021/12/21 05:11:05;;;;;;;45.35;29.52;;;27.70;99.90;;;;;;5075084;28;20028;-68
2021/12/21 05:13:36;;;;;;;31.23;23.55;;;27.70;99.90;;;;;;5075221;28;20074;-66
2021/12/21 05:16:04;;;;;;;32.40;22.73;;;27.70;99.90;;;;;;5069148;28;20393;-66
2021/12/21 05:18:32;;;;;;;33.97;21.30;;;27.60;99.90;;;;;;5072297;28;20029;-67
2021/12/21 05:20:59;;;;;;;36.03;18.75;;;27.70;99.90;;;;;;5068851;28;20029;-67
2021/12/21 05:23:26;;;;;;;24.73;17.02;;;27.70;99.90;;;;;;5063719;28;20077;-66
2021/12/21 05:25:53;;;;;;;18.80;12.18;;;27.70;99.90;;;;;;5064259;28;20189;-66
2021/12/21 05:28:19;;;;;;;20.33;15.98;;;27.70;99.90;;;;;;5104249;23;20062;-67
2021/12/21 05:30:46;;;;;;;21.75;13.68;;;27.70;99.90;;;;;;5085158;28;20384;-66
2021/12/21 05:33:14;;;;;;;21.92;12.75;;;27.80;99.90;;;;;;5081714;28;20028;-66
2021/12/21 05:35:41;;;;;;;26.42;12.70;;;27.80;99.90;;;;;;5082016;28;20024;-66
2021/12/21 05:38:09;;;;;;;15.77;12.13;;;27.80;99.90;;;;;;5088767;28;20024;-66
2021/12/21 05:40:40;;;;;;;19.52;13.93;;;27.80;99.90;;;;;;5091493;28;20020;-65
2021/12/21 05:43:08;;;;;;;23.75;14.30;;;27.70;99.90;;;;;;5083522;28;20028;-65
2021/12/21 05:45:35;;;;;;;21.52;15.80;;;27.70;99.90;;;;;;5080884;28;20036;-70
2021/12/21 05:48:02;;;;;;;25.38;15.43;;;27.70;99.90;;;;;;5084402;28;20081;-66
2021/12/21 05:50:29;;;;;;;29.33;22.45;;;27.80;99.90;;;;;;5086738;28;20020;-64
2021/12/21 05:52:56;;;;;;;120.38;62.03;;;27.90;99.90;;;;;;5089394;28;20024;-65
2021/12/21 05:55:23;;;;;;;165.25;81.43;;;28.00;99.90;;;;;;5080218;28;20472;-64
2021/12/21 05:57:50;;;;;;;184.68;88.85;;;28.00;99.90;;;;;;5091592;28;20040;-65
2021/12/21 06:00:20;;;;;;;156.07;79.45;;;28.00;99.90;;;;;;5094835;28;20027;-65
2021/12/21 06:02:47;;;;;;;160.93;79.05;;;28.00;99.90;;;;;;5111687;22;20059;-65
2021/12/21 06:05:14;;;;;;;166.63;83.00;;;28.00;99.90;;;;;;5081067;28;20024;-66
2021/12/21 06:07:41;;;;;;;165.00;85.35;;;28.00;99.90;;;;;;5073582;28;20078;-67
2021/12/21 06:10:13;;;;;;;155.15;82.63;;;28.00;99.90;;;;;;5056651;28;20029;-64
2021/12/21 06:23:32;;;;;;;53.35;36.08;;;28.30;99.90;;;;;;5071815;28;20370;-64
2021/12/21 06:25:58;;;;;;;51.38;35.33;;;28.40;99.90;;;;;;5062724;28;20020;-65
2021/12/21 06:28:25;;;;;;;27.90;17.05;;;28.50;99.90;;;;;;5063019;28;20031;-66
2021/12/21 06:30:52;;;;;;;48.50;22.08;;;28.50;99.90;;;;;;5072831;28;20035;-64
2021/12/21 06:33:19;;;;;;;28.38;17.40;;;28.50;99.90;;;;;;5059669;28;20035;-64
2021/12/21 06:35:46;;;;;;;24.77;14.68;;;28.50;99.90;;;;;;5056338;28;20642;-66
2021/12/21 06:38:13;;;;;;;27.10;15.63;;;28.40;99.90;;;;;;5055617;28;20489;-65
2021/12/21 06:40:40;;;;;;;32.20;15.35;;;28.50;99.90;;;;;;5059808;28;20024;-65
2021/12/21 06:43:12;;;;;;;22.98;13.13;;;28.50;99.90;;;;;;5063688;28;20082;-65
2021/12/21 06:53:24;;;;;;;44.58;29.67;;;28.60;99.90;;;;;;5066652;28;20017;-65
2021/12/21 06:55:50;;;;;;;37.92;24.27;;;28.70;99.90;;;;;;5065172;28;20040;-65
2021/12/21 06:58:17;;;;;;;40.78;32.03;;;28.80;99.90;;;;;;5068195;28;20112;-64
2021/12/21 07:00:46;;;;;;;35.88;23.42;;;28.90;99.90;;;;;;5066828;28;20033;-67
2021/12/21 07:03:13;;;;;;;71.85;44.28;;;28.80;99.90;;;;;;5068015;28;20044;-63
2021/12/21 07:05:40;;;;;;;96.75;56.63;;;28.70;99.90;;;;;;5073777;28;20031;-63
2021/12/21 07:08:12;;;;;;;112.55;61.47;;;28.80;99.90;;;;;;5073469;28;20112;-63
2021/12/21 07:10:40;;;;;;;606.22;511.48;;;28.80;99.90;;;;;;5063896;28;20121;-63
2021/12/21 07:18:29;;;;;;;74.18;42.38;;;28.90;99.90;;;;;;5056686;28;20094;-64
2021/12/21 07:20:58;;;;;;;88.00;53.77;;;28.90;99.90;;;;;;5073265;28;20035;-64
2021/12/21 07:23:24;;;;;;;80.90;47.05;;;28.90;99.90;;;;;;5083144;28;20051;-65
2021/12/21 07:25:52;;;;;;;111.65;66.28;;;28.90;99.90;;;;;;5065674;28;20037;-65
2021/12/21 07:28:19;;;;;;;120.97;74.63;;;28.90;99.90;;;;;;5060866;28;20087;-65
2021/12/21 07:30:47;;;;;;;98.78;55.30;;;29.00;99.90;;;;;;5068080;28;20037;-64
2021/12/21 07:33:15;;;;;;;49.22;30.42;;;29.00;99.90;;;;;;5074103;28;20041;-65
2021/12/21 07:35:42;;;;;;;36.72;27.08;;;29.00;99.90;;;;;;5064088;28;20082;-64
2021/12/21 07:38:10;;;;;;;199.95;123.53;;;29.10;99.90;;;;;;5056790;28;20482;-63
2021/12/21 07:40:38;;;;;;;66.60;48.00;;;29.10;99.90;;;;;;5076277;28;20032;-65
2021/12/21 07:43:05;;;;;;;79.97;55.60;;;29.10;99.90;;;;;;5069787;28;20032;-64
2021/12/21 07:45:32;;;;;;;122.80;82.20;;;29.10;99.90;;;;;;5058756;28;20033;-64
2021/12/21 07:47:59;;;;;;;68.57;40.20;;;29.10;99.90;;;;;;5070892;28;20024;-64
2021/12/21 07:50:26;;;;;;;106.35;52.58;;;29.10;99.90;;;;;;5076820;28;20393;-64
2021/12/21 07:52:54;;;;;;;68.90;40.13;;;29.30;99.90;;;;;;5076003;28;20464;-64
2021/12/21 07:55:21;;;;;;;73.90;43.40;;;29.20;99.90;;;;;;5070427;28;20037;-64
2021/12/21 07:57:48;;;;;;;66.70;39.58;;;29.20;99.90;;;;;;5067784;28;20122;-63
2021/12/21 08:00:16;;;;;;;150.52;116.80;;;29.20;99.90;;;;;;5067457;28;20167;-64
2021/12/21 08:02:42;;;;;;;84.20;46.92;;;29.20;99.90;;;;;;5065568;28;20055;-63
2021/12/21 08:05:10;;;;;;;95.07;50.17;;;29.20;99.90;;;;;;5069447;28;20036;-63
2021/12/21 08:07:46;;;;;;;81.43;45.53;;;29.20;99.90;;;;;;5067429;28;20028;-64
2021/12/21 08:10:22;;;;;;;86.18;48.20;;;29.10;99.90;;;;;;5072129;28;20489;-64
2021/12/21 08:12:49;;;;;;;73.07;43.33;;;29.10;99.90;;;;;;5069045;28;20491;-63
2021/12/21 08:15:16;;;;;;;74.00;40.33;;;29.10;99.90;;;;;;5066109;28;20479;-64
2021/12/21 08:17:43;;;;;;;75.28;45.28;;;29.20;99.90;;;;;;5067371;28;20357;-66
2021/12/21 08:20:09;;;;;;;97.57;58.00;;;29.20;99.90;;;;;;5068458;28;20033;-66
2021/12/21 08:22:36;;;;;;;97.07;58.95;;;29.20;99.90;;;;;;5070450;28;20476;-64
2021/12/21 08:25:06;;;;;;;81.72;52.90;;;29.30;99.90;;;;;;5075737;28;20397;-65
2021/12/21 08:27:33;;;;;;;83.15;51.28;;;29.40;99.90;;;;;;5075395;28;20039;-64
2021/12/21 08:29:59;;;;;;;92.68;55.33;;;29.40;99.90;;;;;;5076284;28;20033;-64
2021/12/21 08:32:26;;;;;;;88.68;54.78;;;29.40;99.90;;;;;;5075425;28;20377;-65
2021/12/21 08:34:53;;;;;;;80.85;53.70;;;29.40;99.90;;;;;;5073119;28;20032;-65
2021/12/21 08:37:19;;;;;;;88.20;55.70;;;29.40;99.90;;;;;;5070963;28;20032;-64
2021/12/21 08:39:46;;;;;;;474.40;373.10;;;29.40;99.90;;;;;;5076396;28;20449;-66
2021/12/21 08:42:14;;;;;;;226.30;158.60;;;29.30;99.90;;;;;;5076125;28;20025;-64
2021/12/21 08:44:45;;;;;;;88.20;57.10;;;29.30;99.90;;;;;;5076387;28;20027;-65
2021/12/21 08:47:13;;;;;;;77.45;50.67;;;29.30;99.90;;;;;;5076402;28;20094;-64
2021/12/21 08:49:39;;;;;;;80.43;49.10;;;29.20;99.90;;;;;;5076530;28;20032;-65
2021/12/21 08:52:06;;;;;;;79.28;52.20;;;29.10;99.90;;;;;;5075516;28;20036;-65
2021/12/21 08:54:33;;;;;;;87.75;54.67;;;29.10;99.90;;;;;;5076585;28;20461;-64
2021/12/21 08:56:59;;;;;;;83.45;53.45;;;29.10;99.90;;;;;;5076242;28;20055;-64
2021/12/21 08:59:26;;;;;;;87.55;55.22;;;29.10;99.90;;;;;;5077154;28;20079;-65
2021/12/21 09:01:54;;;;;;;79.55;52.78;;;29.20;99.90;;;;;;5075544;28;20047;-64
2021/12/21 09:04:22;;;;;;;85.32;55.60;;;29.20;99.90;;;;;;5075463;28;20024;-65
2021/12/21 09:06:49;;;;;;;84.70;52.40;;;29.20;99.90;;;;;;5076228;28;20033;-64
2021/12/21 09:09:15;;;;;;;87.68;54.60;;;29.30;99.90;;;;;;5075799;28;20017;-64
2021/12/21 09:11:45;;;;;;;97.22;66.78;;;29.20;99.90;;;;;;5075682;28;20032;-63
2021/12/21 09:14:12;;;;;;;123.15;77.32;;;29.20;99.90;;;;;;5075266;28;20029;-65
2021/12/21 09:16:39;;;;;;;84.40;55.42;;;29.20;99.90;;;;;;5109403;22;20070;-65
2021/12/21 09:19:06;;;;;;;91.03;57.30;;;29.20;99.90;;;;;;5095556;28;20027;-64
2021/12/21 09:21:32;;;;;;;71.60;48.60;;;29.20;99.90;;;;;;5088122;28;20378;-64
2021/12/21 09:23:59;;;;;;;86.97;55.47;;;29.20;99.90;;;;;;5090067;28;20019;-65
2021/12/21 09:26:27;;;;;;;103.97;66.07;;;29.20;99.90;;;;;;5095614;28;20168;-65
2021/12/21 09:28:56;;;;;;;101.95;65.05;;;29.30;99.90;;;;;;5095416;28;20047;-66
2021/12/21 09:31:23;;;;;;;76.03;50.60;;;29.30;99.90;;;;;;5094195;28;20032;-66
2021/12/21 09:33:49;;;;;;;74.03;49.58;;;29.20;99.90;;;;;;5088883;28;20063;-65
2021/12/21 09:36:16;;;;;;;79.07;52.42;;;29.20;99.90;;;;;;5095543;28;20034;-64
2021/12/21 09:38:44;;;;;;;78.88;51.15;;;29.10;99.90;;;;;;5090710;28;20103;-64
2021/12/21 09:41:11;;;;;;;76.75;50.65;;;29.10;99.90;;;;;;5084824;28;20041;-65
2021/12/21 09:43:40;;;;;;;92.18;56.80;;;29.20;99.90;;;;;;5085421;28;20058;-64
2021/12/21 09:46:08;;;;;;;99.75;58.00;;;29.10;99.90;;;;;;5088815;28;20396;-64
2021/12/21 09:48:36;;;;;;;78.57;48.38;;;29.20;99.90;;;;;;5083534;28;20024;-64
2021/12/21 09:51:03;;;;;;;76.63;46.70;;;29.10;99.90;;;;;;5085766;28;20058;-64
2021/12/21 09:53:33;;;;;;;67.90;43.70;;;29.00;99.90;;;;;;5080975;28;20024;-64
2021/12/21 09:56:01;;;;;;;90.00;48.35;;;29.00;99.90;;;;;;5087591;28;20044;-66
2021/12/21 09:58:28;;;;;;;66.80;44.47;;;29.00;99.90;;;;;;5085875;28;20043;-64
2021/12/21 10:00:55;;;;;;;60.95;42.63;;;29.00;99.90;;;;;;5089698;28;20476;-65
2021/12/21 10:03:22;;;;;;;60.30;38.45;;;29.00;99.90;;;;;;5087541;28;20100;-65
2021/12/21 10:05:49;;;;;;;60.45;38.25;;;29.00;99.90;;;;;;5088640;28;20085;-65
2021/12/21 10:08:20;;;;;;;54.88;39.10;;;29.00;99.90;;;;;;5094530;28;20036;-66
2021/12/21 10:10:52;;;;;;;64.05;43.58;;;29.10;99.90;;;;;;5080670;28;20082;-66
2021/12/21 10:13:24;;;;;;;56.28;37.97;;;29.10;99.90;;;;;;5067327;28;20047;-65
2021/12/21 10:15:52;;;;;;;;;;;29.10;99.90;;;;;;5078018;28;20048;-63
2021/12/21 10:18:34;;;;;;;66.55;39.25;;;29.00;99.90;;;;;;5078511;28;19912;-65
2021/12/21 10:21:04;;;;;;;54.03;34.00;;;29.00;99.90;;;;;;5076226;28;20100;-64
2021/12/21 10:23:34;;;;;;;60.53;41.92;;;28.90;99.90;;;;;;5072142;28;20553;-65
2021/12/21 10:26:03;;;;;;;73.88;42.78;;;28.80;99.90;;;;;;5082873;28;20028;-65
2021/12/21 10:28:29;;;;;;;48.95;32.30;;;28.80;99.90;;;;;;5074428;28;20037;-65
2021/12/21 10:30:57;;;;;;;47.55;32.83;;;28.80;99.90;;;;;;5073743;28;20025;-66
2021/12/21 10:33:26;;;;;;;39.45;30.48;;;28.80;99.90;;;;;;5070737;28;20053;-64
2021/12/21 10:35:57;;;;;;;54.08;32.90;;;28.70;99.90;;;;;;5073778;28;20032;-64
2021/12/21 10:38:26;;;;;;;68.72;38.80;;;28.60;99.90;;;;;;5072827;28;20032;-64
2021/12/21 10:40:53;;;;;;;60.35;41.30;;;28.70;99.90;;;;;;5070591;28;20093;-65
2021/12/21 10:43:20;;;;;;;82.10;55.60;;;28.70;99.90;;;;;;5071494;28;20085;-64
2021/12/21 10:45:47;;;;;;;77.07;51.85;;;28.70;99.90;;;;;;5074287;28;20027;-65
2021/12/21 10:48:18;;;;;;;88.28;56.90;;;28.70;99.90;;;;;;5072605;28;20017;-64
2021/12/21 10:50:46;;;;;;;98.63;60.08;;;28.70;99.90;;;;;;5072158;28;20493;-66
2021/12/21 10:53:19;;;;;;;89.95;59.28;;;28.60;99.90;;;;;;5073802;28;20111;-65
2021/12/21 10:55:46;;;;;;;59.25;38.53;;;28.60;99.90;;;;;;5050834;28;20032;-64
2021/12/21 10:58:16;;;;;;;57.05;37.50;;;28.60;99.90;;;;;;5073148;28;20075;-66
2021/12/21 11:00:53;;;;;;;58.92;38.88;;;28.60;99.90;;;;;;5073874;28;20025;-65
2021/12/21 11:03:31;;;;;;;47.53;34.67;;;28.60;99.90;;;;;;5067057;28;20091;-65
2021/12/21 11:06:13;;;;;;;70.55;42.50;;;28.60;99.90;;;;;;5074368;28;20100;-65
2021/12/21 11:08:45;;;;;;;59.25;39.15;;;28.60;99.90;;;;;;5053867;28;20394;-64
2021/12/21 11:11:18;;;;;;;76.47;44.25;;;28.50;99.90;;;;;;5053694;28;20029;-64
2021/12/21 11:13:45;;;;;;;59.00;40.35;;;28.40;99.90;;;;;;5073681;28;20083;-64
2021/12/21 11:16:13;;;;;;;59.40;38.80;;;28.40;99.90;;;;;;5074833;28;20508;-64
2021/12/21 11:18:40;;;;;;;62.03;43.33;;;28.40;99.90;;;;;;5080914;28;20040;-65
2021/12/21 11:21:09;;;;;;;61.10;42.65;;;28.40;99.90;;;;;;5083313;28;20033;-64
2021/12/21 11:23:38;;;;;;;75.70;41.78;;;28.40;99.90;;;;;;5073220;28;20032;-65
2021/12/21 11:26:07;;;;;;;83.93;46.80;;;28.40;99.90;;;;;;5069523;28;20033;-64
2021/12/21 11:28:36;;;;;;;72.07;45.85;;;28.40;99.90;;;;;;5075292;28;20032;-64
2021/12/21 11:31:05;;;;;;;111.97;64.13;;;28.40;99.90;;;;;;5073824;28;20037;-65
2021/12/21 11:33:36;;;;;;;97.70;57.88;;;28.40;99.90;;;;;;5069265;28;20036;-64
2021/12/21 11:38:44;;;;;;;132.65;75.68;;;28.30;99.90;;;;;;5070063;28;20039;-63
2021/12/21 11:41:11;;;;;;;128.77;75.82;;;28.30;99.90;;;;;;5069249;28;20104;-64
2021/12/21 11:43:48;;;;;;;118.93;74.82;;;28.30;99.90;;;;;;5069120;28;20032;-64
2021/12/21 11:46:25;;;;;;;134.05;79.68;;;28.20;99.90;;;;;;5065679;28;20093;-63
2021/12/21 11:49:15;;;;;;;149.65;83.65;;;28.20;99.90;;;;;;5065970;28;20127;-64
2021/12/21 11:51:42;;;;;;;164.80;87.68;;;28.20;99.90;;;;;;5065847;28;20022;-64
2021/12/21 11:54:18;;;;;;;155.02;88.88;;;28.00;99.90;;;;;;5063706;28;20032;-63
2021/12/21 11:56:45;;;;;;;156.23;86.80;;;27.80;99.90;;;;;;5064080;28;20029;-63
2021/12/21 11:59:12;;;;;;;158.80;84.32;;;27.80;99.90;;;;;;5065802;28;20441;-63
2021/12/21 12:01:45;;;;;;;153.80;78.93;;;27.80;99.90;;;;;;5066128;28;20024;-63
2021/12/21 12:04:12;;;;;;;160.82;85.90;;;27.90;99.90;;;;;;5064463;28;20362;-62
2021/12/21 12:06:44;;;;;;;154.38;79.40;;;27.90;99.90;;;;;;5071355;28;20040;-64
2021/12/21 12:09:10;;;;;;;160.13;85.20;;;27.90;99.90;;;;;;5072346;28;20032;-64
2021/12/21 12:11:39;;;;;;;148.30;81.00;;;28.00;99.90;;;;;;5072969;28;20025;-66
2021/12/21 12:14:15;;;;;;;156.77;80.10;;;27.90;99.90;;;;;;5072197;28;20047;-63
2021/12/21 12:16:43;;;;;;;146.98;78.47;;;27.90;99.90;;;;;;5076448;28;20044;-64
2021/12/21 12:19:12;;;;;;;147.88;77.45;;;28.00;99.90;;;;;;5075208;28;20405;-63
2021/12/21 12:21:39;;;;;;;145.23;79.47;;;28.00;99.90;;;;;;5077072;28;20025;-63
2021/12/21 12:24:06;;;;;;;146.05;81.55;;;28.00;99.90;;;;;;5077721;28;20033;-64
2021/12/21 12:26:36;;;;;;;139.68;75.15;;;27.90;99.90;;;;;;5081501;28;20029;-64
2021/12/21 12:29:20;;;;;;;133.63;73.15;;;27.80;99.90;;;;;;5088764;28;20056;-63
2021/12/21 12:32:06;;;;;;;125.82;69.50;;;27.80;99.90;;;;;;5079013;28;20206;-62
2021/12/21 12:34:38;;;;;;;121.22;65.85;;;27.70;99.90;;;;;;5089747;28;20552;-62
2021/12/21 12:37:11;;;;;;;111.77;64.37;;;27.60;99.90;;;;;;5082087;28;20039;-63
2021/12/21 12:39:42;;;;;;;100.55;60.55;;;27.50;99.90;;;;;;5089187;28;20351;-64
2021/12/21 12:42:19;;;;;;;105.50;57.05;;;27.50;99.90;;;;;;5087552;28;20048;-63
2021/12/21 12:44:46;;;;;;;99.38;55.92;;;27.60;99.90;;;;;;5082073;28;20028;-64
2021/12/21 12:47:15;;;;;;;96.68;53.28;;;27.70;99.90;;;;;;5092658;28;20024;-63
2021/12/21 12:49:52;;;;;;;94.60;56.00;;;27.70;99.90;;;;;;5091989;28;20293;-63
2021/12/21 12:52:27;;;;;;;100.72;55.00;;;27.80;99.90;;;;;;5093209;28;20517;-62
2021/12/21 12:55:04;;;;;;;93.68;51.00;;;27.70;99.90;;;;;;5080476;28;20473;-64
2021/12/21 12:57:36;;;;;;;79.18;43.67;;;27.60;99.90;;;;;;5075850;28;20366;-63
2021/12/21 13:00:12;;;;;;;68.70;41.60;;;27.40;99.90;;;;;;5083185;28;20024;-63
2021/12/21 13:02:50;;;;;;;57.53;36.42;;;27.30;99.90;;;;;;5084278;28;20136;-65
2021/12/21 13:05:17;;;;;;;60.45;34.72;;;27.30;99.90;;;;;;5090806;28;20055;-64
2021/12/21 13:07:44;;;;;;;66.60;35.72;;;27.20;99.90;;;;;;5080504;28;20059;-64
2021/12/21 13:10:13;;;;;;;66.18;34.53;;;27.10;99.90;;;;;;5072975;28;20071;-64
2021/12/21 13:12:40;;;;;;;59.22;34.83;;;27.20;99.90;;;;;;5078046;28;20043;-66
2021/12/21 13:15:08;;;;;;;59.40;33.33;;;27.20;99.90;;;;;;5077809;28;20064;-63
2021/12/21 13:17:35;;;;;;;49.13;27.95;;;27.20;99.90;;;;;;5088649;28;20078;-63
2021/12/21 13:20:03;;;;;;;40.92;24.80;;;27.20;99.90;;;;;;5077868;28;20086;-63
2021/12/21 13:22:30;;;;;;;64.18;38.42;;;27.20;99.90;;;;;;5078116;28;20024;-64
2021/12/21 13:24:57;;;;;;;69.88;46.45;;;27.30;99.90;;;;;;5079789;28;20041;-64
2021/12/21 13:27:25;;;;;;;65.63;43.70;;;27.30;99.90;;;;;;5079859;28;20054;-63
2021/12/21 13:29:53;;;;;;;56.08;29.08;;;27.30;99.90;;;;;;5090323;28;20024;-64
2021/12/21 13:32:22;;;;;;;46.35;25.35;;;27.40;99.90;;;;;;5082522;28;20057;-64